createdAt,value
2018-06-29T19:18:16.358Z,961.91
2018-06-29T19:19:16.293Z,961.95
2018-06-29T19:20:16.273Z,961.98
2018-06-29T19:21:16.220Z,961.98
2018-06-29T19:22:16.196Z,962.01
2018-06-29T19:23:16.149Z,962.02
2018-06-29T19:24:16.138Z,962.02
2018-06-29T19:25:16.080Z,962.03
2018-06-29T19:26:16.041Z,962.03
2018-06-29T19:27:16.009Z,962.03
2018-06-29T19:28:15.973Z,961.98
2018-06-29T19:29:15.937Z,962.02
2018-06-29T19:30:15.935Z,962.06
2018-06-29T19:31:15.894Z,962.04
2018-06-29T19:32:15.834Z,962.07
2018-06-29T19:33:15.803Z,962.06
2018-06-29T19:34:15.767Z,962.04
2018-06-29T19:35:15.725Z,962.04
2018-06-29T19:36:16.451Z,962.01
2018-06-29T19:37:16.453Z,962.04
2018-06-29T19:38:16.454Z,962.04
2018-06-29T19:39:15.618Z,962.03
2018-06-29T19:40:15.556Z,962.01
2018-06-29T19:41:15.518Z,962.01
2018-06-29T19:42:15.510Z,962.03
2018-06-29T19:43:15.451Z,962.05
2018-06-29T19:44:15.434Z,962.04
2018-06-29T19:45:15.385Z,962.07
2018-06-29T19:46:15.954Z,962.08
2018-06-29T19:47:15.311Z,962.13
2018-06-29T19:48:15.306Z,962.10
2018-06-29T19:49:15.248Z,962.14
2018-06-29T19:50:15.205Z,962.14
2018-06-29T19:51:15.178Z,962.15
2018-06-29T19:52:15.140Z,962.16
2018-06-29T19:53:15.108Z,962.20
2018-06-29T19:54:15.104Z,962.19
2018-06-29T19:55:15.040Z,962.22
2018-06-29T19:56:15.006Z,962.19
2018-06-29T19:57:14.973Z,962.19
2018-06-29T19:58:14.935Z,962.20
2018-06-29T19:59:14.905Z,962.20
2018-06-29T20:00:14.889Z,962.19
2018-06-29T20:01:14.833Z,962.22
2018-06-29T20:02:14.798Z,962.19
2018-06-29T20:03:14.765Z,962.22
2018-06-29T20:04:14.730Z,962.24
2018-06-29T20:05:14.764Z,962.20
2018-06-29T20:06:14.690Z,962.23
2018-06-29T20:07:14.627Z,962.20
2018-06-29T20:08:14.590Z,962.22
2018-06-29T20:09:14.569Z,962.23
2018-06-29T20:10:14.530Z,962.24
2018-06-29T20:11:14.494Z,962.27
2018-06-29T20:12:14.482Z,962.23
2018-06-29T20:13:14.418Z,962.26
2018-06-29T20:14:14.388Z,962.28
2018-06-29T20:15:14.370Z,962.28
2018-06-29T20:16:14.321Z,962.27
2018-06-29T20:17:14.282Z,962.36
2018-06-29T20:18:14.273Z,962.34
2018-06-29T20:19:14.289Z,962.36
2018-06-29T20:20:14.273Z,962.31
2018-06-29T20:21:14.150Z,962.36
2018-06-29T20:22:14.120Z,962.33
2018-06-29T20:23:14.103Z,962.36
2018-06-29T20:24:14.042Z,962.36
2018-06-29T20:25:14.011Z,962.37
2018-06-29T20:26:13.976Z,962.38
2018-06-29T20:27:13.948Z,962.38
2018-06-29T20:28:13.907Z,962.42
2018-06-29T20:29:13.904Z,962.39
2018-06-29T20:30:13.844Z,962.40
2018-06-29T20:31:13.801Z,962.40
2018-06-29T20:32:13.769Z,962.39
2018-06-29T20:33:13.797Z,962.40
2018-06-29T20:34:13.705Z,962.40
2018-06-29T20:35:13.689Z,962.39
2018-06-29T20:36:13.635Z,962.38
2018-06-29T20:37:13.600Z,962.40
2018-06-29T20:38:13.712Z,962.39
2018-06-29T20:39:13.533Z,962.39
2018-06-29T20:40:13.492Z,962.46
2018-06-29T20:41:13.513Z,962.43
2018-06-29T20:42:13.424Z,962.44
2018-06-29T20:43:13.393Z,962.44
2018-06-29T20:44:13.355Z,962.48
2018-06-29T20:45:13.325Z,962.44
2018-06-29T20:46:13.389Z,962.44
2018-06-29T20:47:13.288Z,962.42
2018-06-29T20:48:13.220Z,962.45
2018-06-29T20:49:13.185Z,962.46
2018-06-29T20:50:13.151Z,962.49
2018-06-29T20:51:13.124Z,962.50
2018-06-29T20:52:13.084Z,962.49
2018-06-29T20:53:13.087Z,962.46
2018-06-29T20:54:13.042Z,962.48
2018-06-29T20:55:12.983Z,962.46
2018-06-29T20:56:12.950Z,962.45
2018-06-29T20:57:13.492Z,962.51
2018-06-29T20:58:12.877Z,962.51
2018-06-29T20:59:12.976Z,962.50
2018-06-29T21:00:12.814Z,962.51
2018-06-29T21:01:12.777Z,962.53
2018-06-29T21:02:12.748Z,962.55
2018-06-29T21:03:13.505Z,962.54
2018-06-29T21:04:12.708Z,962.56
2018-06-29T21:05:12.659Z,962.52
2018-06-29T21:06:12.608Z,962.54
2018-06-29T21:07:12.617Z,962.55
2018-06-29T21:08:12.536Z,962.51
2018-06-29T21:09:12.511Z,962.56
2018-06-29T21:10:12.492Z,962.56
2018-06-29T21:11:12.438Z,962.53
2018-06-29T21:12:12.399Z,962.56
2018-06-29T21:13:12.369Z,962.52
2018-06-29T21:14:12.336Z,962.54
2018-06-29T21:15:12.323Z,962.52
2018-06-29T21:16:15.509Z,962.53
2018-06-29T21:17:13.133Z,962.51
2018-06-29T21:18:12.202Z,962.52
2018-06-29T21:19:12.274Z,962.53
2018-06-29T21:20:12.161Z,962.49
2018-06-29T21:21:12.094Z,962.53
2018-06-29T21:22:12.087Z,962.52
2018-06-29T21:23:12.029Z,962.50
2018-06-29T21:24:11.995Z,962.48
2018-06-29T21:25:11.989Z,962.53
2018-06-29T21:26:11.926Z,962.48
2018-06-29T21:27:11.922Z,962.50
2018-06-29T21:28:11.856Z,962.46
2018-06-29T21:29:11.826Z,962.48
2018-06-29T21:30:11.792Z,962.44
2018-06-29T21:31:11.753Z,962.42
2018-06-29T21:32:11.745Z,962.42
2018-06-29T21:33:11.685Z,962.45
2018-06-29T21:34:11.653Z,962.44
2018-06-29T21:35:11.618Z,962.46
2018-06-29T21:36:11.584Z,962.47
2018-06-29T21:37:11.547Z,962.43
2018-06-29T21:38:11.547Z,962.46
2018-06-29T21:39:11.485Z,962.43
2018-06-29T21:40:11.446Z,962.41
2018-06-29T21:41:11.413Z,962.42
2018-06-29T21:42:11.376Z,962.43
2018-06-29T21:43:11.344Z,962.46
2018-06-29T21:44:11.346Z,962.45
2018-06-29T21:45:11.278Z,962.48
2018-06-29T21:46:11.241Z,962.47
2018-06-29T21:47:11.259Z,962.49
2018-06-29T21:48:11.172Z,962.48
2018-06-29T21:49:11.165Z,962.50
2018-06-29T21:50:11.102Z,962.47
2018-06-29T21:51:11.076Z,962.50
2018-06-29T21:52:11.035Z,962.49
2018-06-29T21:53:11.002Z,962.49
2018-06-29T21:54:10.972Z,962.52
2018-06-29T21:55:10.961Z,962.51
2018-06-29T21:56:10.900Z,962.51
2018-06-29T21:57:10.862Z,962.50
2018-06-29T21:58:10.830Z,962.53
2018-06-29T21:59:10.798Z,962.52
2018-06-29T22:00:10.790Z,962.49
2018-06-29T22:01:10.728Z,962.51
2018-06-29T22:02:10.697Z,962.52
2018-06-29T22:03:10.658Z,962.52
2018-06-29T22:04:10.627Z,962.50
2018-06-29T22:05:10.617Z,962.51
2018-06-29T22:07:43.662Z,962.49
2018-06-29T22:08:43.617Z,962.50
2018-06-29T22:09:43.612Z,962.49
2018-06-29T22:10:43.548Z,962.51
2018-06-29T22:11:43.514Z,962.50
2018-06-29T22:12:43.479Z,962.48
2018-06-29T22:13:43.444Z,962.50
2018-06-29T22:14:43.446Z,962.47
2018-06-29T22:15:43.381Z,962.45
2018-06-29T22:16:43.341Z,962.45
2018-06-29T22:17:43.310Z,962.44
2018-06-29T22:18:43.274Z,962.46
2018-06-29T22:19:43.242Z,962.46
2018-06-29T22:20:43.235Z,962.45
2018-06-29T22:21:43.170Z,962.45
2018-06-29T22:22:43.140Z,962.42
2018-06-29T22:23:43.104Z,962.43
2018-06-29T22:24:43.076Z,962.39
2018-06-29T22:25:43.065Z,962.41
2018-06-29T22:26:43.004Z,962.39
2018-06-29T22:27:42.970Z,962.41
2018-06-29T22:28:42.932Z,962.41
2018-06-29T22:29:42.902Z,962.39
2018-06-29T22:30:42.867Z,962.37
2018-06-29T22:31:42.864Z,962.37
2018-06-29T22:32:42.796Z,962.38
2018-06-29T22:33:42.759Z,962.35
2018-06-29T22:34:42.727Z,962.35
2018-06-29T22:35:42.700Z,962.35
2018-06-29T22:36:42.681Z,962.36
2018-06-29T22:37:42.625Z,962.35
2018-06-29T22:38:42.590Z,962.36
2018-06-29T22:39:42.560Z,962.35
2018-06-29T22:40:42.521Z,962.36
2018-06-29T22:41:42.511Z,962.33
2018-06-29T22:42:42.514Z,962.33
2018-06-29T22:43:42.420Z,962.34
2018-06-29T22:44:42.386Z,962.35
2018-06-29T22:45:42.352Z,962.35
2018-06-29T22:46:42.340Z,962.31
2018-06-29T22:47:42.310Z,962.31
2018-06-29T22:48:42.250Z,962.33
2018-06-29T22:49:42.217Z,962.36
2018-06-29T22:50:42.184Z,962.33
2018-06-29T22:51:42.152Z,962.34
2018-06-29T22:52:42.114Z,962.26
2018-06-29T22:53:42.107Z,962.33
2018-06-29T22:54:42.047Z,962.31
2018-06-29T22:55:42.010Z,962.35
2018-06-29T22:56:41.975Z,962.34
2018-06-29T22:57:41.950Z,962.33
2018-06-29T22:58:41.909Z,962.34
2018-06-29T22:59:41.893Z,962.32
2018-06-29T23:00:41.841Z,962.31
2018-06-29T23:01:41.804Z,962.40
2018-06-29T23:02:41.784Z,962.34
